Time;durP1;ratioP1;P1;durP2;ratioP2;P2;SDS_P1;SDS_P2;PMS_P1;PMS_P2;Temp;Humidity;BMP_temperature;BMP_pressure;BME280_temperature;BME280_humidity;BME280_pressure;Samples;Min_cycle;Max_cycle;Signal;HPM_P1;HPM_P2
2021/06/16 00:02:02;;;;;;;3.05;2.75;;;19.90;99.90;;;19.75;85.72;101094.94;4168354;28;20029;-68
2021/06/16 00:04:05;;;;;;;4.18;2.60;;;19.80;99.90;;;19.64;86.27;101094.75;4168569;28;20661;-68
2021/06/16 00:06:06;;;;;;;3.78;2.50;;;19.80;99.90;;;19.67;85.95;101092.50;4169833;28;20036;-68
2021/06/16 00:08:07;;;;;;;5.35;2.20;;;19.70;99.90;;;19.72;85.73;101086.50;4169698;28;20026;-68
2021/06/16 00:10:10;;;;;;;4.43;3.22;;;19.80;99.90;;;19.73;85.50;101091.66;4168359;28;20068;-68
2021/06/16 00:12:11;;;;;;;4.60;2.42;;;19.80;99.90;;;19.51;86.17;101076.00;4169649;28;20021;-68
2021/06/16 00:14:12;;;;;;;4.07;2.90;;;19.70;99.90;;;19.57;85.99;101084.03;4169865;28;20033;-68
2021/06/16 00:16:14;;;;;;;4.75;2.95;;;19.70;99.90;;;19.54;86.12;101089.81;4169596;28;20029;-69
2021/06/16 00:18:16;;;;;;;3.55;2.55;;;19.60;99.90;;;19.57;86.08;101086.72;4169218;28;20025;-68
2021/06/16 00:20:17;;;;;;;3.88;2.55;;;19.70;99.90;;;19.49;86.53;101084.25;4169577;28;20081;-68
2021/06/16 00:22:18;;;;;;;4.68;3.00;;;19.60;99.90;;;19.51;86.50;101079.50;4169327;28;20032;-68
2021/06/16 00:24:21;;;;;;;5.93;3.00;;;19.60;99.90;;;19.53;86.11;101079.31;4169295;28;20025;-68
2021/06/16 00:26:22;;;;;;;;;;;19.60;99.90;;;19.57;85.59;101081.38;4169871;28;20112;-68
2021/06/16 00:28:24;;;;;;;5.13;2.80;;;19.60;99.90;;;19.56;86.28;101076.25;4169288;28;19925;-68
2021/06/16 00:30:26;;;;;;;5.63;2.90;;;19.60;99.90;;;19.53;86.69;101080.16;4169443;28;20026;-69
2021/06/16 00:32:27;;;;;;;4.93;3.50;;;19.60;99.90;;;19.44;87.03;101075.22;4169075;28;20121;-68
2021/06/16 00:34:28;;;;;;;4.53;3.20;;;19.60;99.90;;;19.25;87.72;101060.75;4168091;28;20021;-68
2021/06/16 00:36:30;;;;;;;5.57;3.28;;;19.50;99.90;;;19.41;86.75;101071.09;4169284;28;20079;-68
2021/06/16 00:38:31;;;;;;;4.57;3.17;;;19.50;99.90;;;19.38;86.98;101068.81;4167874;28;20366;-69
2021/06/16 00:40:32;;;;;;;4.22;3.25;;;19.50;99.90;;;19.25;87.76;101066.94;4168007;28;20091;-68
2021/06/16 00:42:33;;;;;;;4.72;3.10;;;19.40;99.90;;;19.33;87.02;101063.22;4169161;28;20068;-68
2021/06/16 00:44:34;;;;;;;6.10;2.92;;;19.40;99.90;;;19.20;87.32;101064.03;4168884;28;20029;-68
2021/06/16 00:46:36;;;;;;;6.63;3.13;;;19.40;99.90;;;19.14;87.65;101053.34;4167826;28;20579;-68
2021/06/16 00:48:37;;;;;;;3.92;3.45;;;19.40;99.90;;;19.15;87.92;101057.66;4167972;28;20025;-68
2021/06/16 00:50:39;;;;;;;5.47;2.97;;;19.30;99.90;;;19.17;87.96;101058.28;4167886;28;20024;-68
2021/06/16 00:52:41;;;;;;;5.13;3.03;;;19.20;99.90;;;19.15;88.09;101052.31;4168922;28;20085;-68
2021/06/16 00:54:42;;;;;;;4.38;3.33;;;19.30;99.90;;;19.17;88.08;101048.41;4169096;28;20029;-68
2021/06/16 00:56:43;;;;;;;4.10;3.08;;;19.20;99.90;;;19.15;87.74;101036.25;4169044;28;20060;-68
2021/06/16 00:58:44;;;;;;;4.38;2.88;;;19.30;99.90;;;19.18;88.18;101033.16;4167824;28;20021;-68
2021/06/16 01:01:13;;;;;;;7.05;3.67;;;19.20;99.90;;;19.15;87.90;101042.44;4167678;28;20109;-68
2021/06/16 01:03:34;;;;;;;3.85;3.20;;;19.20;99.90;;;19.16;87.84;101032.56;4167552;28;20442;-68
2021/06/16 01:05:47;;;;;;;5.18;3.05;;;19.20;99.90;;;19.09;88.34;101029.03;4167537;28;20029;-68
2021/06/16 01:07:58;;;;;;;6.30;3.30;;;19.20;99.90;;;19.02;88.36;101031.75;4167806;28;20516;-68
2021/06/16 01:10:03;;;;;;;5.00;2.95;;;19.20;99.90;;;18.93;88.96;101029.47;4167661;28;20026;-68
2021/06/16 01:12:24;;;;;;;5.05;3.15;;;19.10;99.90;;;18.94;89.10;101031.91;4166713;28;20025;-68
2021/06/16 01:14:54;;;;;;;5.47;3.08;;;19.10;99.90;;;18.82;89.93;101032.72;4167440;28;20063;-68
2021/06/16 01:16:58;;;;;;;8.27;3.63;;;19.00;99.90;;;18.82;89.41;101027.38;4167105;28;20039;-69
2021/06/16 01:19:28;;;;;;;4.45;3.35;;;19.00;99.90;;;18.72;90.45;101023.25;4167555;28;20065;-68
2021/06/16 01:21:30;;;;;;;4.63;3.53;;;18.90;99.90;;;18.78;89.97;101022.44;4167699;28;20080;-68
2021/06/16 01:24:15;;;;;;;6.63;3.63;;;18.90;99.90;;;18.87;89.05;101022.25;4167205;28;20033;-68
2021/06/16 01:26:56;;;;;;;3.63;3.13;;;18.90;99.90;;;18.79;89.57;101013.38;4177672;28;20045;-68
2021/06/16 01:29:11;;;;;;;5.97;3.60;;;18.90;99.90;;;18.79;89.41;101018.72;4167934;28;20101;-68
2021/06/16 01:31:18;;;;;;;5.63;3.58;;;18.90;99.90;;;18.69;89.61;101001.44;4167228;28;20084;-69
2021/06/16 01:33:19;;;;;;;7.40;4.20;;;18.90;99.90;;;18.67;90.07;101008.81;4199663;28;20044;-68
2021/06/16 01:35:21;;;;;;;3.85;3.15;;;18.80;99.90;;;18.64;90.71;101010.06;4200524;28;20035;-68
2021/06/16 01:37:22;;;;;;;5.95;3.50;;;18.80;99.90;;;18.61;90.88;101005.13;4168552;28;20028;-68
2021/06/16 01:39:31;;;;;;;6.05;3.60;;;18.80;99.90;;;18.64;90.58;100999.38;4167125;28;20049;-68
2021/06/16 01:41:32;;;;;;;5.50;3.40;;;18.70;99.90;;;18.70;90.09;100990.53;4167325;28;20079;-69
2021/06/16 01:43:33;;;;;;;4.45;3.63;;;18.80;99.90;;;18.79;90.01;101002.69;4168258;28;20049;-69
2021/06/16 01:45:37;;;;;;;5.15;3.72;;;18.80;99.90;;;18.86;89.54;100997.38;4167299;28;20531;-68
2021/06/16 01:47:38;;;;;;;7.63;3.47;;;18.80;99.90;;;18.89;89.31;100988.94;4166840;28;20602;-68
2021/06/16 01:49:40;;;;;;;5.45;4.07;;;18.90;99.90;;;18.67;89.58;100988.28;4167319;28;20025;-68
2021/06/16 01:51:41;;;;;;;6.68;4.03;;;18.90;99.90;;;18.66;90.47;101001.84;4167266;28;20459;-68
2021/06/16 01:53:42;;;;;;;5.57;3.45;;;18.80;99.90;;;18.56;90.91;101001.41;4167221;28;20030;-68
2021/06/16 01:55:44;;;;;;;4.13;3.25;;;18.70;99.90;;;18.51;91.36;100977.97;4168243;28;20036;-68
2021/06/16 01:57:47;;;;;;;4.05;3.08;;;18.70;99.90;;;18.46;91.43;100985.72;4167237;28;20112;-68
2021/06/16 01:59:51;;;;;;;5.50;3.10;;;18.60;99.90;;;18.51;91.51;100999.34;4167212;28;20112;-68
2021/06/16 02:01:53;;;;;;;5.45;2.92;;;18.60;99.90;;;18.49;91.82;101001.38;4166913;28;20276;-68
2021/06/16 02:03:54;;;;;;;6.60;2.92;;;18.60;99.90;;;18.48;91.92;100991.72;4167000;28;20121;-68
2021/06/16 02:05:59;;;;;;;3.90;3.05;;;18.60;99.90;;;18.53;91.78;100996.47;4167169;28;20044;-68
2021/06/16 02:08:11;;;;;;;4.20;3.60;;;18.60;99.90;;;18.55;91.47;100997.91;4167057;28;20087;-68
2021/06/16 02:10:15;;;;;;;6.15;3.28;;;18.60;99.90;;;18.54;91.33;100998.94;4167118;28;20588;-69
2021/06/16 02:12:18;;;;;;;3.58;3.20;;;18.60;99.90;;;18.57;91.15;100992.38;4166923;28;20033;-68
2021/06/16 02:14:20;;;;;;;5.03;3.70;;;18.60;99.90;;;18.51;91.31;100994.00;4167114;28;20022;-68
2021/06/16 02:16:37;;;;;;;4.30;3.17;;;18.60;99.90;;;18.51;91.48;100990.50;4166896;28;20017;-68
2021/06/16 02:18:49;;;;;;;6.30;3.45;;;18.60;99.90;;;18.46;91.83;100980.38;4166796;28;20029;-68
2021/06/16 02:20:50;;;;;;;5.40;3.72;;;18.50;99.90;;;18.47;91.79;100987.38;4168174;28;20104;-68
2021/06/16 02:22:51;;;;;;;4.88;3.00;;;18.50;99.90;;;18.49;91.36;100979.19;4169540;28;20029;-68
2021/06/16 02:24:54;;;;;;;4.80;3.47;;;18.60;99.90;;;18.40;91.65;100986.53;4169981;28;20025;-68
2021/06/16 02:26:55;;;;;;;4.40;3.15;;;18.50;99.90;;;18.46;91.08;100987.56;4171434;28;20045;-68
2021/06/16 02:28:56;;;;;;;3.72;3.20;;;18.50;99.90;;;18.30;91.77;100978.09;4171380;28;20071;-68
2021/06/16 02:30:58;;;;;;;5.25;3.67;;;18.50;99.90;;;18.45;90.78;100972.59;4171323;28;20026;-68
2021/06/16 02:32:59;;;;;;;4.80;3.33;;;18.40;99.90;;;18.38;91.34;100969.06;4169683;28;20055;-68
2021/06/16 02:35:00;;;;;;;4.03;3.38;;;18.50;99.90;;;18.42;91.33;100973.81;4170101;28;20041;-68
2021/06/16 02:37:07;;;;;;;4.55;3.30;;;18.40;99.90;;;18.31;91.73;100963.69;4169937;28;20032;-68
2021/06/16 02:39:34;;;;;;;5.50;3.58;;;18.40;99.90;;;18.30;91.87;100963.91;4170019;28;20049;-68
2021/06/16 02:41:36;;;;;;;5.53;3.35;;;18.40;99.90;;;18.24;92.09;100955.69;4170276;28;20083;-68
2021/06/16 02:43:37;;;;;;;4.07;3.10;;;18.30;99.90;;;18.08;92.87;100949.84;4169933;28;20104;-68
2021/06/16 02:45:41;;;;;;;6.55;3.42;;;18.30;99.90;;;18.13;92.47;100950.91;4169733;28;20029;-68
2021/06/16 02:47:48;;;;;;;7.80;3.25;;;18.30;99.90;;;18.08;93.25;100933.84;4169599;28;20032;-68
2021/06/16 02:49:59;;;;;;;5.35;3.38;;;18.30;99.90;;;18.17;92.84;100948.66;4170008;28;20554;-68
2021/06/16 02:52:02;;;;;;;5.57;3.33;;;18.20;99.90;;;18.18;92.84;100940.47;4171120;28;20571;-68
2021/06/16 02:54:09;;;;;;;5.97;3.33;;;18.30;99.90;;;18.20;92.64;100927.72;4169783;28;20048;-68
2021/06/16 02:56:12;;;;;;;7.00;3.25;;;18.20;99.90;;;18.15;92.69;100921.34;4170013;28;20025;-69
2021/06/16 02:58:17;;;;;;;7.13;4.17;;;18.20;99.90;;;18.06;93.02;100915.38;4171027;28;20028;-68
2021/06/16 03:00:19;;;;;;;5.38;2.85;;;18.20;99.90;;;18.12;92.28;100922.56;4169803;28;20268;-68
2021/06/16 03:02:24;;;;;;;4.68;3.20;;;18.20;99.90;;;18.11;92.29;100923.59;4169255;28;20034;-68
2021/06/16 03:04:27;;;;;;;4.05;2.83;;;18.20;99.90;;;18.06;92.68;100914.53;4169659;28;20029;-68
2021/06/16 03:06:28;;;;;;;3.88;3.22;;;18.20;99.90;;;18.13;92.13;100915.38;4169819;28;20032;-68
2021/06/16 03:08:30;;;;;;;5.72;3.17;;;18.20;99.90;;;18.07;92.27;100916.19;4169752;28;20026;-68
2021/06/16 03:10:33;;;;;;;3.90;3.20;;;18.20;99.90;;;17.98;92.58;100912.06;4169804;28;20076;-68
2021/06/16 03:12:36;;;;;;;3.67;3.38;;;18.10;99.90;;;17.99;92.62;100911.00;4153188;28;20022;-68
2021/06/16 03:14:37;;;;;;;4.97;3.30;;;18.10;99.90;;;17.95;92.47;100901.78;4169540;28;20132;-68
2021/06/16 03:16:41;;;;;;;5.88;4.00;;;18.10;99.90;;;18.10;92.45;100910.41;4169120;28;20026;-68
2021/06/16 03:18:45;;;;;;;3.83;3.38;;;18.10;99.90;;;18.00;92.90;100905.50;4169699;28;20043;-68
2021/06/16 03:20:46;;;;;;;5.30;3.78;;;18.20;99.90;;;17.88;93.18;100899.06;4169477;28;20026;-68
2021/06/16 03:22:49;;;;;;;5.28;3.35;;;18.10;99.90;;;17.89;93.65;100907.91;4169405;28;20137;-68
2021/06/16 03:24:51;;;;;;;6.72;3.88;;;18.10;99.90;;;17.84;93.92;100900.50;4170337;28;20033;-68
2021/06/16 03:26:53;;;;;;;7.45;3.45;;;18.10;99.90;;;17.88;94.20;100900.91;4152994;28;20022;-68
2021/06/16 03:28:55;;;;;;;5.97;3.88;;;18.10;99.90;;;17.94;93.90;100892.94;4170519;28;20022;-68
2021/06/16 03:30:59;;;;;;;4.97;3.47;;;18.10;99.90;;;17.99;93.79;100885.16;4152845;28;20036;-68
2021/06/16 03:33:00;;;;;;;;;;;18.10;99.90;;;17.91;94.21;100879.16;4169227;28;20096;-68
2021/06/16 03:35:06;;;;;;;3.72;2.97;;;18.10;99.90;;;18.00;94.13;100878.78;4169612;28;19924;-70
2021/06/16 03:37:10;;;;;;;5.13;2.95;;;18.10;99.90;;;18.02;94.06;100882.06;4169163;28;20108;-68
2021/06/16 03:39:14;;;;;;;5.10;2.92;;;18.10;99.90;;;18.07;93.00;100886.81;4168857;28;20033;-68
2021/06/16 03:41:16;;;;;;;6.15;3.03;;;18.20;99.90;;;18.02;93.46;100878.56;4168888;28;20061;-68
2021/06/16 03:43:19;;;;;;;4.03;3.25;;;18.10;99.90;;;18.01;93.44;100884.97;4168927;28;20029;-68
2021/06/16 03:45:21;;;;;;;5.32;3.40;;;18.10;99.90;;;18.01;93.43;100884.97;4168932;28;20574;-68
2021/06/16 03:47:27;;;;;;;5.75;4.30;;;18.10;99.90;;;18.14;92.37;100882.31;4168689;28;20071;-68
2021/06/16 03:49:29;;;;;;;4.43;3.95;;;18.10;99.90;;;18.14;92.19;100880.47;4168853;28;20036;-68
2021/06/16 03:51:33;;;;;;;6.50;4.20;;;18.20;99.90;;;18.08;93.25;100877.78;4169013;28;20026;-68
2021/06/16 03:53:34;;;;;;;;;;;18.20;99.90;;;17.84;93.47;100863.13;4169281;28;20036;-68
2021/06/16 03:55:37;;;;;;;4.35;3.35;;;18.10;99.90;;;17.84;94.01;100867.63;4168805;28;19936;-68
2021/06/16 03:57:40;;;;;;;6.07;3.13;;;18.10;99.90;;;17.82;94.07;100859.84;4170104;28;20091;-68
2021/06/16 03:59:42;;;;;;;6.10;2.95;;;18.10;99.90;;;17.85;94.20;100874.63;4168904;28;20072;-68
2021/06/16 04:01:44;;;;;;;5.38;3.80;;;18.00;99.90;;;17.90;94.07;100870.34;4168288;28;20022;-68
2021/06/16 04:03:46;;;;;;;5.30;3.38;;;18.00;99.90;;;17.81;93.50;100852.84;4168515;28;20113;-68
2021/06/16 04:05:47;;;;;;;6.13;3.47;;;18.00;99.90;;;17.90;92.96;100862.31;4168586;28;20026;-68
2021/06/16 04:07:51;;;;;;;5.82;3.63;;;18.00;99.90;;;17.89;92.89;100862.53;4168830;28;20034;-68
2021/06/16 04:09:55;;;;;;;5.57;3.20;;;18.00;99.90;;;17.93;92.95;100867.25;4168972;28;20033;-68
2021/06/16 04:11:57;;;;;;;7.03;3.22;;;18.00;99.90;;;17.87;93.30;100872.56;4169834;28;20029;-68
2021/06/16 04:13:59;;;;;;;5.72;3.25;;;17.90;99.90;;;17.86;93.05;100865.59;4168776;28;20023;-68
2021/06/16 04:16:02;;;;;;;6.22;3.45;;;17.90;99.90;;;17.79;92.78;100849.56;4169901;28;20104;-68
2021/06/16 04:18:04;;;;;;;4.87;3.77;;;17.90;99.90;;;17.71;92.74;100843.59;4168308;28;20567;-68
2021/06/16 04:20:06;;;;;;;7.20;3.25;;;17.90;99.90;;;17.65;93.33;100858.56;4169700;28;20112;-68
2021/06/16 04:22:07;;;;;;;6.05;3.97;;;17.90;99.90;;;17.70;93.79;100861.44;4169776;28;20021;-68
2021/06/16 04:24:09;;;;;;;5.88;3.45;;;17.80;99.90;;;17.66;93.63;100839.66;4168658;28;20580;-68
2021/06/16 04:26:10;;;;;;;5.20;3.70;;;17.90;99.90;;;17.74;93.89;100845.84;4169678;28;20071;-68
2021/06/16 04:28:11;;;;;;;5.30;3.55;;;17.90;99.90;;;17.85;93.27;100853.28;4169480;28;20033;-68
2021/06/16 04:30:14;;;;;;;7.93;3.60;;;17.90;99.90;;;17.84;93.33;100846.28;4169668;28;20026;-69
2021/06/16 04:32:15;;;;;;;5.70;3.40;;;17.90;99.90;;;17.87;93.28;100849.38;4169374;28;20056;-68
2021/06/16 04:34:16;;;;;;;5.55;3.83;;;17.90;99.90;;;17.82;93.11;100843.00;4168131;28;20272;-68
2021/06/16 04:36:17;;;;;;;4.97;3.17;;;17.90;99.90;;;17.84;93.08;100847.13;4167820;28;20114;-68
2021/06/16 04:38:18;;;;;;;5.28;3.50;;;17.90;99.90;;;17.81;92.83;100850.19;4168120;28;20089;-68
2021/06/16 04:40:19;;;;;;;8.80;4.07;;;17.90;99.90;;;17.73;93.52;100841.53;4168984;28;20405;-68
2021/06/16 04:42:20;;;;;;;3.80;3.40;;;17.90;99.90;;;17.82;92.96;100859.84;4167914;28;20432;-68
2021/06/16 04:44:21;;;;;;;4.30;3.38;;;17.90;99.90;;;17.86;92.70;100870.94;4169050;28;20021;-68
2021/06/16 04:46:25;;;;;;;9.55;3.30;;;18.00;99.90;;;17.78;93.18;100861.25;4168037;28;20521;-68
2021/06/16 04:48:26;;;;;;;5.10;3.38;;;17.90;99.90;;;17.83;92.96;100860.66;4169252;28;20022;-68
2021/06/16 04:50:27;;;;;;;4.47;3.88;;;17.90;99.90;;;17.89;91.93;100839.31;4169126;28;20033;-68
2021/06/16 04:52:29;;;;;;;5.90;3.95;;;18.00;99.90;;;17.96;92.32;100858.84;4168997;28;20029;-68
2021/06/16 04:54:30;;;;;;;5.70;3.67;;;18.10;99.90;;;17.78;93.25;100861.25;4169107;28;20120;-68
2021/06/16 04:56:31;;;;;;;4.93;4.03;;;18.00;99.90;;;17.71;94.15;100848.94;4167845;28;20492;-68
2021/06/16 04:58:32;;;;;;;6.13;3.78;;;18.00;99.90;;;17.61;94.81;100838.63;4169025;28;20033;-68
2021/06/16 05:00:33;;;;;;;6.90;3.92;;;18.00;99.90;;;17.81;94.47;100842.19;4168875;28;20131;-68
2021/06/16 05:02:34;;;;;;;5.53;3.58;;;18.00;99.90;;;17.87;94.43;100848.56;4167511;28;20496;-68
2021/06/16 05:04:35;;;;;;;4.03;3.55;;;18.10;99.90;;;17.97;94.40;100855.16;4167693;28;20033;-68
2021/06/16 05:06:36;;;;;;;7.28;3.58;;;18.20;99.90;;;18.00;94.47;100852.09;4168846;28;20506;-68
2021/06/16 05:08:37;;;;;;;4.35;3.63;;;18.20;99.90;;;18.10;94.13;100849.84;4168757;28;20112;-68
2021/06/16 05:10:38;;;;;;;4.20;3.38;;;18.30;99.90;;;18.22;93.40;100850.06;4168821;28;20101;-68
2021/06/16 05:12:39;;;;;;;5.75;3.17;;;18.40;99.90;;;18.28;93.04;100838.56;4168920;28;20028;-68
2021/06/16 05:14:40;;;;;;;3.92;3.20;;;18.50;99.90;;;18.37;92.42;100837.34;4167855;28;20060;-68
2021/06/16 05:16:41;;;;;;;4.22;3.28;;;18.60;99.90;;;18.43;92.50;100841.09;4168235;28;20037;-68
2021/06/16 05:18:45;;;;;;;5.45;3.70;;;18.60;99.90;;;18.45;92.38;100849.72;4168835;28;20036;-68
2021/06/16 05:20:47;;;;;;;7.32;4.35;;;18.70;99.90;;;18.41;92.80;100846.63;4169013;28;20400;-68
2021/06/16 05:22:48;;;;;;;3.78;3.38;;;18.80;99.90;;;18.49;92.99;100848.28;4168759;28;20029;-68
2021/06/16 05:24:50;;;;;;;5.35;3.50;;;18.80;99.90;;;18.59;92.53;100849.53;4168777;28;20040;-68
2021/06/16 05:26:51;;;;;;;4.50;3.42;;;18.90;99.90;;;18.58;92.48;100836.38;4168933;28;20056;-68
2021/06/16 05:28:52;;;;;;;4.68;3.60;;;18.90;99.90;;;18.64;92.51;100854.25;4167692;28;20033;-68
2021/06/16 05:30:53;;;;;;;5.68;3.88;;;18.90;99.90;;;18.68;92.71;100850.97;4168870;28;20028;-68
2021/06/16 05:32:54;;;;;;;6.15;4.63;;;19.00;99.90;;;18.69;92.38;100841.94;4168479;28;20060;-68
2021/06/16 05:34:55;;;;;;;6.90;4.28;;;19.00;99.90;;;18.81;92.46;100843.97;4167200;28;20112;-68
2021/06/16 05:36:56;;;;;;;5.72;4.10;;;19.10;99.90;;;18.84;92.55;100839.03;4173772;28;20488;-68
2021/06/16 05:38:58;;;;;;;6.60;4.13;;;19.20;99.90;;;18.84;92.76;100838.22;4168446;28;20116;-68
2021/06/16 05:40:59;;;;;;;8.52;4.20;;;19.20;99.90;;;18.91;92.79;100831.00;4168655;28;20036;-68
2021/06/16 05:43:00;;;;;;;6.85;3.97;;;19.20;99.90;;;18.96;92.79;100826.69;4167111;28;20025;-68
2021/06/16 05:45:01;;;;;;;5.75;4.20;;;19.30;99.90;;;19.07;92.44;100835.91;4168264;28;20053;-68
2021/06/16 05:47:02;;;;;;;5.65;3.63;;;19.40;99.90;;;19.15;92.10;100820.47;4168234;28;20102;-68
2021/06/16 05:49:03;;;;;;;5.63;4.90;;;19.50;99.90;;;19.28;90.81;100822.28;4167268;28;20026;-68
2021/06/16 05:51:05;;;;;;;5.75;3.88;;;19.60;99.90;;;19.29;90.88;100805.22;4168169;28;20056;-68
2021/06/16 05:53:08;;;;;;;6.93;4.70;;;19.70;99.90;;;19.44;89.53;100823.72;4167189;28;20017;-68
2021/06/16 05:55:09;;;;;;;6.30;5.20;;;19.70;99.90;;;19.45;89.16;100820.81;4167039;28;20037;-68
2021/06/16 05:57:10;;;;;;;6.70;4.25;;;19.80;99.90;;;19.51;89.83;100819.97;4166717;28;20064;-69
2021/06/16 05:59:11;;;;;;;6.32;5.30;;;19.80;99.90;;;19.56;88.64;100812.09;4166953;28;20057;-69
2021/06/16 06:01:12;;;;;;;6.55;5.20;;;19.90;99.90;;;19.60;88.54;100810.66;4167201;28;20120;-68
2021/06/16 06:03:13;;;;;;;5.68;4.40;;;19.90;99.90;;;19.46;89.43;100800.22;4168035;28;20021;-68
2021/06/16 06:05:15;;;;;;;6.05;4.40;;;19.90;99.90;;;19.38;90.11;100790.56;4166886;28;20034;-69
2021/06/16 06:07:16;;;;;;;7.60;4.03;;;19.90;99.90;;;19.45;89.93;100804.75;4167119;28;20424;-69
2021/06/16 06:09:17;;;;;;;7.43;5.82;;;19.90;99.90;;;19.49;89.59;100792.59;4168290;28;20030;-68
2021/06/16 06:11:18;;;;;;;5.72;4.55;;;19.90;99.90;;;19.47;89.42;100769.78;4168040;28;20028;-69
2021/06/16 06:13:20;;;;;;;8.60;5.63;;;20.00;99.90;;;19.65;89.34;100786.75;4168312;28;20492;-69
2021/06/16 06:15:21;;;;;;;8.00;4.80;;;20.00;99.90;;;19.67;88.93;100767.81;4168061;28;20033;-69
2021/06/16 06:17:22;;;;;;;6.35;4.38;;;20.10;99.90;;;19.72;89.73;100781.34;4168046;28;20036;-69
2021/06/16 06:19:23;;;;;;;6.35;4.53;;;20.10;99.90;;;19.77;89.91;100781.56;4168222;28;20185;-69
2021/06/16 06:21:30;;;;;;;5.78;5.03;;;20.20;99.90;;;19.88;88.67;100779.00;4168252;28;20033;-69
2021/06/16 06:23:31;;;;;;;7.53;5.25;;;20.30;99.90;;;19.94;88.81;100788.03;4166351;28;20032;-68
2021/06/16 06:25:32;;;;;;;7.28;5.50;;;20.30;99.90;;;20.05;88.40;100789.19;4189375;28;20028;-68
2021/06/16 06:27:33;;;;;;;8.65;5.13;;;20.40;99.90;;;20.13;88.38;100791.63;4200138;28;20017;-68
2021/06/16 06:29:34;;;;;;;9.10;5.38;;;20.50;99.90;;;20.17;87.69;100777.56;4168192;28;20083;-68
2021/06/16 06:31:35;;;;;;;8.48;5.22;;;20.60;99.90;;;20.26;88.24;100789.69;4167747;28;20026;-68
2021/06/16 06:33:37;;;;;;;7.68;5.35;;;20.70;99.90;;;20.36;87.30;100779.31;4166979;28;20022;-68
2021/06/16 06:35:38;;;;;;;6.68;5.32;;;20.90;99.90;;;20.65;87.18;100798.44;4166817;28;20021;-70
2021/06/16 06:37:39;;;;;;;6.60;4.47;;;21.20;99.90;;;20.76;86.91;100787.78;4167960;28;20638;-69
2021/06/16 06:39:41;;;;;;;9.07;6.05;;;21.30;99.90;;;20.92;85.44;100792.59;4166525;28;20038;-68
2021/06/16 06:41:42;;;;;;;4.90;4.10;;;21.50;99.90;;;21.02;85.81;100791.25;4164685;28;20138;-68
2021/06/16 06:43:44;;;;;;;5.40;4.65;;;21.60;99.90;;;21.14;85.19;100793.00;4167412;28;20536;-68
2021/06/16 06:45:45;;;;;;;7.18;4.82;;;21.80;99.90;;;21.24;84.52;100789.78;4167376;28;20409;-68
2021/06/16 06:47:46;;;;;;;7.25;4.53;;;21.80;99.90;;;21.29;84.77;100788.09;4166907;28;20100;-68
2021/06/16 06:49:47;;;;;;;7.20;4.65;;;21.90;99.90;;;21.29;85.07;100789.94;4167577;28;20057;-68
2021/06/16 06:51:48;;;;;;;6.15;5.38;;;22.00;99.90;;;21.22;84.39;100776.59;4166503;28;20068;-68
2021/06/16 06:53:49;;;;;;;8.38;5.35;;;21.90;99.90;;;21.29;84.82;100780.03;4166668;28;20025;-69
2021/06/16 06:55:50;;;;;;;6.03;5.35;;;21.90;99.90;;;21.28;85.42;100778.41;4166260;28;20025;-68
2021/06/16 06:57:51;;;;;;;6.00;5.03;;;21.90;99.90;;;21.26;84.43;100777.81;4166709;28;20040;-68
2021/06/16 06:59:52;;;;;;;10.40;5.70;;;21.90;99.90;;;21.10;85.18;100786.44;4148005;28;20022;-68
2021/06/16 07:01:53;;;;;;;9.52;5.93;;;22.00;99.90;;;21.21;85.16;100783.00;4164444;28;20692;-68
2021/06/16 07:03:54;;;;;;;8.20;5.95;;;22.00;99.90;;;21.36;84.56;100785.31;4166351;28;20116;-68
2021/06/16 07:05:55;;;;;;;6.47;5.03;;;22.00;99.90;;;21.30;84.56;100762.88;4166505;28;20038;-68
2021/06/16 07:07:56;;;;;;;5.35;4.85;;;22.00;99.90;;;21.40;84.85;100783.81;4166468;28;20095;-68
2021/06/16 07:09:57;;;;;;;10.50;5.30;;;22.00;99.90;;;21.30;84.76;100759.38;4169029;28;20029;-68
2021/06/16 07:11:58;;;;;;;10.10;5.05;;;22.00;99.90;;;21.59;84.30;100785.44;4170246;28;20029;-68
2021/06/16 07:13:59;;;;;;;7.80;4.80;;;22.10;99.90;;;21.68;84.45;100783.25;4170719;28;20026;-68
2021/06/16 07:16:00;;;;;;;7.32;5.25;;;22.20;99.90;;;21.75;83.92;100787.47;4170587;28;20068;-68
2021/06/16 07:18:01;;;;;;;7.60;4.60;;;22.30;99.90;;;21.74;84.08;100780.47;4170252;28;20057;-68
2021/06/16 07:20:07;;;;;;;7.05;4.57;;;22.30;99.90;;;21.84;84.27;100779.91;4169333;28;20454;-68
2021/06/16 07:22:08;;;;;;;7.25;4.50;;;22.40;99.90;;;21.85;84.53;100774.31;4169069;28;20168;-69
2021/06/16 07:24:10;;;;;;;7.55;4.50;;;22.40;99.90;;;21.89;84.71;100772.03;4168960;28;20513;-69
2021/06/16 07:26:11;;;;;;;4.75;4.18;;;22.40;99.90;;;21.93;85.08;100773.19;4197000;28;20050;-69
2021/06/16 07:28:12;;;;;;;7.10;4.47;;;22.50;99.90;;;21.91;85.36;100773.44;4202051;28;20017;-69
2021/06/16 07:30:14;;;;;;;6.88;4.40;;;22.50;99.90;;;22.00;85.37;100774.75;4169186;28;20025;-69
2021/06/16 07:32:18;;;;;;;6.90;4.75;;;22.50;99.90;;;22.07;84.87;100763.91;4168796;28;20036;-70
2021/06/16 07:34:19;;;;;;;5.50;4.07;;;22.60;99.90;;;22.08;85.47;100765.53;4170384;28;20040;-69
2021/06/16 07:36:20;;;;;;;10.68;4.82;;;22.60;99.90;;;22.18;84.98;100767.66;4152406;28;20436;-69
2021/06/16 07:38:21;;;;;;;7.70;4.00;;;22.70;99.90;;;22.20;85.53;100760.19;4170046;28;20056;-69
2021/06/16 07:40:22;;;;;;;4.97;3.20;;;22.80;99.90;;;22.24;86.12;100755.97;4168978;28;20487;-69
2021/06/16 07:42:24;;;;;;;10.07;4.55;;;22.90;99.90;;;22.24;86.31;100753.28;4177131;28;20519;-69
2021/06/16 07:44:26;;;;;;;8.55;4.50;;;22.90;99.90;;;22.33;86.17;100752.72;4170077;28;20080;-69
2021/06/16 07:46:27;;;;;;;8.45;5.25;;;22.90;99.90;;;22.36;85.94;100752.25;4152280;28;20026;-69
2021/06/16 07:48:28;;;;;;;7.20;4.85;;;23.00;99.90;;;22.50;85.25;100750.97;4169270;28;20024;-69
2021/06/16 07:50:29;;;;;;;7.13;4.18;;;23.10;99.90;;;22.64;85.23;100751.53;4169005;28;20099;-69
2021/06/16 07:52:31;;;;;;;6.63;4.05;;;23.20;99.90;;;22.81;85.26;100760.59;4168643;28;20029;-69
2021/06/16 07:54:32;;;;;;;7.32;4.85;;;23.30;99.90;;;22.90;82.24;100756.47;4170173;28;20488;-69
2021/06/16 07:56:33;;;;;;;5.25;4.03;;;23.50;99.90;;;23.06;82.88;100761.13;4170045;28;20056;-69
2021/06/16 07:58:34;;;;;;;4.68;3.90;;;23.60;99.90;;;23.06;83.32;100750.34;4169985;28;20073;-69
2021/06/16 08:00:35;;;;;;;5.65;4.25;;;23.60;99.90;;;23.19;84.23;100761.91;4169854;28;20076;-69
2021/06/16 08:02:38;;;;;;;6.43;4.22;;;23.80;99.90;;;23.36;82.81;100752.84;4169734;28;20021;-69
2021/06/16 08:04:41;;;;;;;6.50;4.00;;;23.90;99.90;;;23.48;81.90;100744.75;4168791;28;20100;-69
2021/06/16 08:06:42;;;;;;;6.68;3.92;;;24.00;99.90;;;23.68;79.08;100755.94;4169942;28;20469;-70
2021/06/16 08:08:43;;;;;;;5.63;3.20;;;24.10;99.90;;;23.72;78.05;100740.06;4169721;28;20018;-70
2021/06/16 08:10:44;;;;;;;9.07;4.07;;;24.30;99.90;;;23.92;78.99;100743.16;4169893;28;20475;-70
2021/06/16 08:12:45;;;;;;;6.65;3.58;;;24.40;99.90;;;23.84;76.61;100735.44;4169784;28;20025;-69
2021/06/16 08:14:46;;;;;;;6.80;3.45;;;24.50;99.90;;;23.78;76.48;100731.03;4168605;28;20120;-69
2021/06/16 08:16:47;;;;;;;6.28;3.90;;;24.40;99.90;;;24.00;77.88;100737.34;4168139;28;20105;-69
2021/06/16 08:18:51;;;;;;;8.38;4.40;;;24.50;99.90;;;24.11;76.69;100728.41;4169818;28;20061;-69
2021/06/16 08:20:52;;;;;;;6.13;3.90;;;24.60;99.90;;;24.13;76.58;100735.16;4168295;28;20029;-69
2021/06/16 08:22:53;;;;;;;6.45;4.32;;;24.80;99.90;;;24.41;74.88;100728.88;4168300;28;20037;-69
2021/06/16 08:24:56;;;;;;;7.30;4.13;;;24.90;99.90;;;24.58;74.47;100734.25;4168020;28;20087;-69
2021/06/16 08:26:57;;;;;;;6.10;4.13;;;25.10;99.90;;;24.74;74.63;100730.69;4168342;28;20017;-69
2021/06/16 08:28:58;;;;;;;7.65;3.70;;;25.20;99.90;;;24.82;73.64;100727.59;4169448;28;20086;-69
2021/06/16 08:30:59;;;;;;;7.43;4.50;;;25.40;99.90;;;24.99;72.03;100733.75;4169476;28;20123;-69
2021/06/16 08:33:00;;;;;;;5.13;3.60;;;25.50;99.90;;;25.10;72.12;100724.72;4168890;28;20508;-69